Accueil
METAR-TAF:

METAR-TAF

Aéroports :

Oxford, Angleterre

Aéroport d'Oxford Kidlington

latitude: 51-50-13N, longitude: 1-19-12W, altitude: 82 m

Observation

Le bulletin a été fait il y a 13 minutes, à 12:20 UTC
Vent 14 kt de est
Température 4°C
Humidité 65%
Pression 1021 hPa
Visibilité 10 km ou plus
Nuages fragmentés à une hauteur de 3000 ft

METAR: EGTK 231220Z 08014KT 9999 BKN030 04/M02 Q1021

Heure: 12:33 (12:33 UTC)

Prévision

Le bulletin a été fait il y a 1 heure et 38 minutes, à 10:55 UTC
Prévision valable du 23 à 12 UTC au 23 à 21 UTC
Vent 12 kt de est
Visibilité 10 km ou plus
Quelques nuages à une hauteur de 2000 ft
Probabilité 30% :
Temporairement
du 23 à 18 UTC au 23 à 21 UTC
Visibilité: 8000 m

TAF: EGTK 231055Z 2312/2321 09012KT 9999 FEW020 PROB30 TEMPO 2318/2321 8000

Observations et prévisions météorologiques de plus de 4000 aéroports (messages METAR et TAF).

Les stations disponibles sont représentées par des disques jaunes et rouges sur la carte.

Passer la souris dessus pour voir le nom de la station.

Cliquer dessus pour voir les observations et prévisions météorologiques.

Pour changer de carte: cliquez sur les boutons verts avec une croix noire pour zoomer, sur le bouton vert avec un tiret pour effectuer un zoom arrière, ou sur les flèches vertes pour les cartes adjacentes.


METAR-TAF: